sensor_id;sensor_type;location;lat;lon;timestamp;pressure;altitude;pressure_sealevel;temperature;humidity
14594;BME280;7383;52.354;9.756;2023-04-25T00:02:11;65156.72;;;-143.30;100.00
14594;BME280;7383;52.354;9.756;2023-04-25T00:04:38;65156.72;;;-143.30;100.00
14594;BME280;7383;52.354;9.756;2023-04-25T00:07:05;65156.72;;;-143.30;100.00
14594;BME280;7383;52.354;9.756;2023-04-25T00:09:34;65156.72;;;-143.30;100.00
14594;BME280;7383;52.354;9.756;2023-04-25T00:12:00;65156.72;;;-143.30;100.00
14594;BME280;7383;52.354;9.756;2023-04-25T00:14:27;65156.72;;;-143.30;100.00
14594;BME280;7383;52.354;9.756;2023-04-25T00:16:54;65156.72;;;-143.30;100.00
14594;BME280;7383;52.354;9.756;2023-04-25T00:19:20;65156.72;;;-143.30;100.00
14594;BME280;7383;52.354;9.756;2023-04-25T00:21:47;65156.72;;;-143.30;100.00
14594;BME280;7383;52.354;9.756;2023-04-25T00:24:14;65156.72;;;-143.30;100.00
14594;BME280;7383;52.354;9.756;2023-04-25T00:26:42;65156.72;;;-143.30;100.00
14594;BME280;7383;52.354;9.756;2023-04-25T00:29:08;65156.72;;;-143.30;100.00
14594;BME280;7383;52.354;9.756;2023-04-25T00:31:34;65156.72;;;-143.30;100.00
14594;BME280;7383;52.354;9.756;2023-04-25T00:34:01;65156.72;;;-143.30;100.00
14594;BME280;7383;52.354;9.756;2023-04-25T00:36:27;65156.72;;;-143.30;100.00
14594;BME280;7383;52.354;9.756;2023-04-25T00:38:55;65156.72;;;-143.30;100.00
14594;BME280;7383;52.354;9.756;2023-04-25T00:41:22;65156.72;;;-143.30;100.00
14594;BME280;7383;52.354;9.756;2023-04-25T00:43:50;65156.72;;;-143.30;100.00
14594;BME280;7383;52.354;9.756;2023-04-25T00:46:18;65156.72;;;-143.30;100.00
14594;BME280;7383;52.354;9.756;2023-04-25T00:48:56;65156.72;;;-143.30;100.00
14594;BME280;7383;52.354;9.756;2023-04-25T00:51:23;65156.72;;;-143.30;100.00
14594;BME280;7383;52.354;9.756;2023-04-25T00:53:52;65156.72;;;-143.30;100.00
14594;BME280;7383;52.354;9.756;2023-04-25T00:56:19;65156.72;;;-143.30;100.00
14594;BME280;7383;52.354;9.756;2023-04-25T00:58:47;65156.72;;;-143.30;100.00
14594;BME280;7383;52.354;9.756;2023-04-25T01:01:16;65156.72;;;-143.30;100.00
14594;BME280;7383;52.354;9.756;2023-04-25T01:03:43;65156.72;;;-143.30;100.00
14594;BME280;7383;52.354;9.756;2023-04-25T01:06:12;65156.72;;;-143.30;100.00
14594;BME280;7383;52.354;9.756;2023-04-25T01:08:39;65156.72;;;-143.30;100.00
14594;BME280;7383;52.354;9.756;2023-04-25T01:11:05;65156.72;;;-143.30;100.00
14594;BME280;7383;52.354;9.756;2023-04-25T01:13:32;65156.72;;;-143.30;100.00
14594;BME280;7383;52.354;9.756;2023-04-25T01:16:00;65156.72;;;-143.30;100.00
14594;BME280;7383;52.354;9.756;2023-04-25T01:18:28;65156.72;;;-143.30;100.00
14594;BME280;7383;52.354;9.756;2023-04-25T01:23:28;65156.72;;;-143.30;100.00
14594;BME280;7383;52.354;9.756;2023-04-25T01:25:55;65156.72;;;-143.30;100.00
14594;BME280;7383;52.354;9.756;2023-04-25T01:28:21;65156.72;;;-143.30;100.00
14594;BME280;7383;52.354;9.756;2023-04-25T01:30:48;65156.72;;;-143.30;100.00
14594;BME280;7383;52.354;9.756;2023-04-25T01:33:15;65156.72;;;-143.30;100.00
14594;BME280;7383;52.354;9.756;2023-04-25T01:35:42;65156.72;;;-143.30;100.00
14594;BME280;7383;52.354;9.756;2023-04-25T01:38:08;65156.72;;;-143.30;100.00
14594;BME280;7383;52.354;9.756;2023-04-25T01:40:40;65156.72;;;-143.30;100.00
14594;BME280;7383;52.354;9.756;2023-04-25T01:43:07;65156.72;;;-143.30;100.00
14594;BME280;7383;52.354;9.756;2023-04-25T01:45:37;65156.72;;;-143.30;100.00
14594;BME280;7383;52.354;9.756;2023-04-25T01:48:06;65156.72;;;-143.30;100.00
14594;BME280;7383;52.354;9.756;2023-04-25T01:50:33;65156.72;;;-143.30;100.00
14594;BME280;7383;52.354;9.756;2023-04-25T01:53:01;65156.72;;;-143.30;100.00
14594;BME280;7383;52.354;9.756;2023-04-25T01:55:28;65156.72;;;-143.30;100.00
14594;BME280;7383;52.354;9.756;2023-04-25T01:57:56;65156.72;;;-143.30;100.00
14594;BME280;7383;52.354;9.756;2023-04-25T02:00:23;65156.72;;;-143.30;100.00
14594;BME280;7383;52.354;9.756;2023-04-25T02:02:50;65156.72;;;-143.30;100.00
14594;BME280;7383;52.354;9.756;2023-04-25T02:05:18;65156.72;;;-143.30;100.00
14594;BME280;7383;52.354;9.756;2023-04-25T02:07:45;65156.72;;;-143.30;100.00
14594;BME280;7383;52.354;9.756;2023-04-25T02:10:12;65156.72;;;-143.30;100.00
14594;BME280;7383;52.354;9.756;2023-04-25T02:12:39;65156.72;;;-143.30;100.00
14594;BME280;7383;52.354;9.756;2023-04-25T02:15:08;65156.72;;;-143.30;100.00
14594;BME280;7383;52.354;9.756;2023-04-25T02:17:35;65156.72;;;-143.30;100.00
14594;BME280;7383;52.354;9.756;2023-04-25T02:20:03;65156.72;;;-143.30;100.00
14594;BME280;7383;52.354;9.756;2023-04-25T02:22:30;65156.72;;;-143.30;100.00
14594;BME280;7383;52.354;9.756;2023-04-25T02:24:57;65156.72;;;-143.30;100.00
14594;BME280;7383;52.354;9.756;2023-04-25T02:27:23;65156.72;;;-143.30;100.00
14594;BME280;7383;52.354;9.756;2023-04-25T02:29:52;65156.72;;;-143.30;100.00
14594;BME280;7383;52.354;9.756;2023-04-25T02:32:20;65156.72;;;-143.30;100.00
14594;BME280;7383;52.354;9.756;2023-04-25T02:34:48;65156.72;;;-143.30;100.00
14594;BME280;7383;52.354;9.756;2023-04-25T02:37:15;65156.72;;;-143.30;100.00
14594;BME280;7383;52.354;9.756;2023-04-25T02:39:41;65156.72;;;-143.30;100.00
14594;BME280;7383;52.354;9.756;2023-04-25T02:42:08;65156.72;;;-143.30;100.00
14594;BME280;7383;52.354;9.756;2023-04-25T02:44:39;65156.72;;;-143.30;100.00
14594;BME280;7383;52.354;9.756;2023-04-25T02:47:06;65156.72;;;-143.30;100.00
14594;BME280;7383;52.354;9.756;2023-04-25T02:49:34;65156.72;;;-143.30;100.00
14594;BME280;7383;52.354;9.756;2023-04-25T02:52:01;65156.72;;;-143.30;100.00
14594;BME280;7383;52.354;9.756;2023-04-25T02:54:28;65156.72;;;-143.30;100.00
14594;BME280;7383;52.354;9.756;2023-04-25T02:56:54;65156.72;;;-143.30;100.00
14594;BME280;7383;52.354;9.756;2023-04-25T02:59:22;65156.72;;;-143.30;100.00
14594;BME280;7383;52.354;9.756;2023-04-25T03:01:50;65156.72;;;-143.30;100.00
14594;BME280;7383;52.354;9.756;2023-04-25T03:04:17;65156.72;;;-143.30;100.00
14594;BME280;7383;52.354;9.756;2023-04-25T03:06:45;65156.72;;;-143.30;100.00
14594;BME280;7383;52.354;9.756;2023-04-25T03:09:12;65156.72;;;-143.30;100.00
14594;BME280;7383;52.354;9.756;2023-04-25T03:11:39;65156.72;;;-143.30;100.00
14594;BME280;7383;52.354;9.756;2023-04-25T03:14:06;65156.72;;;-143.30;100.00
14594;BME280;7383;52.354;9.756;2023-04-25T03:16:32;65156.72;;;-143.30;100.00
14594;BME280;7383;52.354;9.756;2023-04-25T03:18:59;65156.72;;;-143.30;100.00
14594;BME280;7383;52.354;9.756;2023-04-25T03:21:25;65156.72;;;-143.30;100.00
14594;BME280;7383;52.354;9.756;2023-04-25T03:23:54;65156.72;;;-143.30;100.00
14594;BME280;7383;52.354;9.756;2023-04-25T03:26:20;65156.72;;;-143.30;100.00
14594;BME280;7383;52.354;9.756;2023-04-25T03:28:47;65156.72;;;-143.30;100.00
14594;BME280;7383;52.354;9.756;2023-04-25T03:31:13;65156.72;;;-143.30;100.00
14594;BME280;7383;52.354;9.756;2023-04-25T03:33:40;65156.72;;;-143.30;100.00
14594;BME280;7383;52.354;9.756;2023-04-25T03:36:07;65156.72;;;-143.30;100.00
14594;BME280;7383;52.354;9.756;2023-04-25T03:38:36;65156.72;;;-143.30;100.00
14594;BME280;7383;52.354;9.756;2023-04-25T03:41:04;65156.72;;;-143.30;100.00
14594;BME280;7383;52.354;9.756;2023-04-25T03:43:30;65156.72;;;-143.30;100.00
14594;BME280;7383;52.354;9.756;2023-04-25T03:45:57;65156.72;;;-143.30;100.00
14594;BME280;7383;52.354;9.756;2023-04-25T03:48:24;65156.72;;;-143.30;100.00
14594;BME280;7383;52.354;9.756;2023-04-25T03:50:51;65156.72;;;-143.30;100.00
14594;BME280;7383;52.354;9.756;2023-04-25T03:53:17;65156.72;;;-143.30;100.00
14594;BME280;7383;52.354;9.756;2023-04-25T03:55:45;65156.72;;;-143.30;100.00
14594;BME280;7383;52.354;9.756;2023-04-25T03:58:13;65156.72;;;-143.30;100.00
14594;BME280;7383;52.354;9.756;2023-04-25T04:00:44;65156.72;;;-143.30;100.00
14594;BME280;7383;52.354;9.756;2023-04-25T04:03:11;65156.72;;;-143.30;100.00
14594;BME280;7383;52.354;9.756;2023-04-25T04:05:38;65156.72;;;-143.30;100.00
14594;BME280;7383;52.354;9.756;2023-04-25T04:08:06;65156.72;;;-143.30;100.00
14594;BME280;7383;52.354;9.756;2023-04-25T04:10:33;65156.72;;;-143.30;100.00
14594;BME280;7383;52.354;9.756;2023-04-25T04:13:00;65156.72;;;-143.30;100.00
14594;BME280;7383;52.354;9.756;2023-04-25T04:15:28;65156.72;;;-143.30;100.00
14594;BME280;7383;52.354;9.756;2023-04-25T04:17:58;65156.72;;;-143.30;100.00
14594;BME280;7383;52.354;9.756;2023-04-25T04:20:28;65156.72;;;-143.30;100.00
14594;BME280;7383;52.354;9.756;2023-04-25T04:22:54;65156.72;;;-143.30;100.00
14594;BME280;7383;52.354;9.756;2023-04-25T04:25:23;65156.72;;;-143.30;100.00
14594;BME280;7383;52.354;9.756;2023-04-25T04:27:50;65156.72;;;-143.30;100.00
14594;BME280;7383;52.354;9.756;2023-04-25T04:30:19;65156.72;;;-143.30;100.00
14594;BME280;7383;52.354;9.756;2023-04-25T04:32:48;65156.72;;;-143.30;100.00
14594;BME280;7383;52.354;9.756;2023-04-25T04:35:14;65156.72;;;-143.30;100.00
14594;BME280;7383;52.354;9.756;2023-04-25T04:37:41;65156.72;;;-143.30;100.00
14594;BME280;7383;52.354;9.756;2023-04-25T04:40:09;65156.72;;;-143.30;100.00
14594;BME280;7383;52.354;9.756;2023-04-25T04:42:37;65156.72;;;-143.30;100.00
14594;BME280;7383;52.354;9.756;2023-04-25T04:45:04;65156.72;;;-143.30;100.00
14594;BME280;7383;52.354;9.756;2023-04-25T04:47:31;65156.72;;;-143.30;100.00
14594;BME280;7383;52.354;9.756;2023-04-25T04:50:04;65156.72;;;-143.30;100.00
14594;BME280;7383;52.354;9.756;2023-04-25T04:52:32;65156.72;;;-143.30;100.00
14594;BME280;7383;52.354;9.756;2023-04-25T04:54:59;65156.72;;;-143.30;100.00
14594;BME280;7383;52.354;9.756;2023-04-25T04:57:27;65156.72;;;-143.30;100.00
14594;BME280;7383;52.354;9.756;2023-04-25T04:59:54;65156.72;;;-143.30;100.00
14594;BME280;7383;52.354;9.756;2023-04-25T05:02:21;65156.72;;;-143.30;100.00
14594;BME280;7383;52.354;9.756;2023-04-25T05:04:50;65156.72;;;-143.30;100.00
14594;BME280;7383;52.354;9.756;2023-04-25T05:07:19;65156.72;;;-143.30;100.00
14594;BME280;7383;52.354;9.756;2023-04-25T05:09:50;65156.72;;;-143.30;100.00
14594;BME280;7383;52.354;9.756;2023-04-25T05:12:17;65156.72;;;-143.30;100.00
14594;BME280;7383;52.354;9.756;2023-04-25T05:14:44;65156.72;;;-143.30;100.00
14594;BME280;7383;52.354;9.756;2023-04-25T05:17:11;65156.72;;;-143.30;100.00
14594;BME280;7383;52.354;9.756;2023-04-25T05:19:39;65156.72;;;-143.30;100.00
14594;BME280;7383;52.354;9.756;2023-04-25T05:22:08;65156.72;;;-143.30;100.00
14594;BME280;7383;52.354;9.756;2023-04-25T05:24:36;65156.72;;;-143.30;100.00
14594;BME280;7383;52.354;9.756;2023-04-25T05:27:03;65156.72;;;-143.30;100.00
14594;BME280;7383;52.354;9.756;2023-04-25T05:29:31;65156.72;;;-143.30;100.00
14594;BME280;7383;52.354;9.756;2023-04-25T05:32:00;65156.72;;;-143.30;100.00
14594;BME280;7383;52.354;9.756;2023-04-25T05:34:27;65156.72;;;-143.30;100.00
14594;BME280;7383;52.354;9.756;2023-04-25T05:36:53;65156.72;;;-143.30;100.00
14594;BME280;7383;52.354;9.756;2023-04-25T05:39:22;65156.72;;;-143.30;100.00
14594;BME280;7383;52.354;9.756;2023-04-25T05:41:53;65156.72;;;-143.30;100.00
14594;BME280;7383;52.354;9.756;2023-04-25T05:44:22;65156.72;;;-143.30;100.00
14594;BME280;7383;52.354;9.756;2023-04-25T05:46:49;65156.72;;;-143.30;100.00
14594;BME280;7383;52.354;9.756;2023-04-25T05:49:16;65156.72;;;-143.30;100.00
14594;BME280;7383;52.354;9.756;2023-04-25T05:51:42;65156.72;;;-143.30;100.00
14594;BME280;7383;52.354;9.756;2023-04-25T05:54:12;65156.72;;;-143.30;100.00
14594;BME280;7383;52.354;9.756;2023-04-25T05:56:38;65156.72;;;-143.30;100.00
14594;BME280;7383;52.354;9.756;2023-04-25T05:59:07;65156.72;;;-143.30;100.00
14594;BME280;7383;52.354;9.756;2023-04-25T06:01:34;65156.72;;;-143.30;100.00
14594;BME280;7383;52.354;9.756;2023-04-25T06:04:00;65156.72;;;-143.30;100.00
14594;BME280;7383;52.354;9.756;2023-04-25T06:06:29;65156.72;;;-143.30;100.00
14594;BME280;7383;52.354;9.756;2023-04-25T06:08:57;65156.72;;;-143.30;100.00
14594;BME280;7383;52.354;9.756;2023-04-25T07:16:15;65156.72;;;-143.30;100.00
14594;BME280;7383;52.354;9.756;2023-04-25T07:18:42;65156.72;;;-143.30;100.00
14594;BME280;7383;52.354;9.756;2023-04-25T07:21:09;65156.72;;;-143.30;100.00
14594;BME280;7383;52.354;9.756;2023-04-25T07:23:36;65156.72;;;-143.30;100.00
14594;BME280;7383;52.354;9.756;2023-04-25T07:26:02;65156.72;;;-143.30;100.00
14594;BME280;7383;52.354;9.756;2023-04-25T07:28:29;65156.72;;;-143.30;100.00
14594;BME280;7383;52.354;9.756;2023-04-25T07:30:55;65156.72;;;-143.30;100.00
14594;BME280;7383;52.354;9.756;2023-04-25T07:33:24;65156.72;;;-143.30;100.00
14594;BME280;7383;52.354;9.756;2023-04-25T07:35:54;65156.72;;;-143.30;100.00
14594;BME280;7383;52.354;9.756;2023-04-25T07:38:23;65156.72;;;-143.30;100.00
14594;BME280;7383;52.354;9.756;2023-04-25T07:40:49;65156.72;;;-143.30;100.00
14594;BME280;7383;52.354;9.756;2023-04-25T07:43:16;65156.72;;;-143.30;100.00
14594;BME280;7383;52.354;9.756;2023-04-25T07:45:43;65156.72;;;-143.30;100.00
14594;BME280;7383;52.354;9.756;2023-04-25T07:48:10;65156.72;;;-143.30;100.00
14594;BME280;7383;52.354;9.756;2023-04-25T07:50:37;65156.72;;;-143.30;100.00
14594;BME280;7383;52.354;9.756;2023-04-25T07:53:04;65156.72;;;-143.30;100.00
14594;BME280;7383;52.354;9.756;2023-04-25T07:55:30;65156.72;;;-143.30;100.00
14594;BME280;7383;52.354;9.756;2023-04-25T07:57:57;65156.72;;;-143.30;100.00
14594;BME280;7383;52.354;9.756;2023-04-25T08:00:23;65156.72;;;-143.30;100.00
14594;BME280;7383;52.354;9.756;2023-04-25T08:02:50;65156.72;;;-143.30;100.00
14594;BME280;7383;52.354;9.756;2023-04-25T08:05:17;65156.72;;;-143.30;100.00
14594;BME280;7383;52.354;9.756;2023-04-25T08:07:44;65156.72;;;-143.30;100.00
14594;BME280;7383;52.354;9.756;2023-04-25T08:10:11;65156.72;;;-143.30;100.00
14594;BME280;7383;52.354;9.756;2023-04-25T08:12:37;65156.72;;;-143.30;100.00
14594;BME280;7383;52.354;9.756;2023-04-25T08:15:05;65156.72;;;-143.30;100.00
14594;BME280;7383;52.354;9.756;2023-04-25T08:17:32;65156.72;;;-143.30;100.00
14594;BME280;7383;52.354;9.756;2023-04-25T08:19:58;65156.72;;;-143.30;100.00
14594;BME280;7383;52.354;9.756;2023-04-25T08:22:30;65156.72;;;-143.30;100.00
14594;BME280;7383;52.354;9.756;2023-04-25T08:24:57;65156.72;;;-143.30;100.00
14594;BME280;7383;52.354;9.756;2023-04-25T08:27:24;65156.72;;;-143.30;100.00
14594;BME280;7383;52.354;9.756;2023-04-25T08:29:50;65156.72;;;-143.30;100.00
14594;BME280;7383;52.354;9.756;2023-04-25T08:32:20;65156.72;;;-143.30;100.00
14594;BME280;7383;52.354;9.756;2023-04-25T08:34:47;65156.72;;;-143.30;100.00
14594;BME280;7383;52.354;9.756;2023-04-25T08:37:16;65156.72;;;-143.30;100.00
14594;BME280;7383;52.354;9.756;2023-04-25T08:40:03;65156.72;;;-143.30;100.00
14594;BME280;7383;52.354;9.756;2023-04-25T08:42:37;65156.72;;;-143.30;100.00
14594;BME280;7383;52.354;9.756;2023-04-25T08:45:14;65156.72;;;-143.30;100.00
14594;BME280;7383;52.354;9.756;2023-04-25T08:47:45;65156.72;;;-143.30;100.00
14594;BME280;7383;52.354;9.756;2023-04-25T08:50:13;65156.72;;;-143.30;100.00
14594;BME280;7383;52.354;9.756;2023-04-25T08:52:46;65156.72;;;-143.30;100.00
14594;BME280;7383;52.354;9.756;2023-04-25T09:02:20;65156.72;;;-143.30;100.00
14594;BME280;7383;52.354;9.756;2023-04-25T09:05:08;65156.72;;;-143.30;100.00
14594;BME280;7383;52.354;9.756;2023-04-25T09:08:10;65156.72;;;-143.30;100.00
14594;BME280;7383;52.354;9.756;2023-04-25T09:10:51;65156.72;;;-143.30;100.00
14594;BME280;7383;52.354;9.756;2023-04-25T09:16:59;65156.72;;;-143.30;100.00
14594;BME280;7383;52.354;9.756;2023-04-25T09:19:29;65156.72;;;-143.30;100.00
14594;BME280;7383;52.354;9.756;2023-04-25T09:22:18;65156.72;;;-143.30;100.00
14594;BME280;7383;52.354;9.756;2023-04-25T09:24:46;65156.72;;;-143.30;100.00
14594;BME280;7383;52.354;9.756;2023-04-25T09:27:18;65156.72;;;-143.30;100.00
14594;BME280;7383;52.354;9.756;2023-04-25T09:29:45;65156.72;;;-143.30;100.00
14594;BME280;7383;52.354;9.756;2023-04-25T09:32:17;65156.72;;;-143.30;100.00
14594;BME280;7383;52.354;9.756;2023-04-25T09:34:46;65156.72;;;-143.30;100.00
14594;BME280;7383;52.354;9.756;2023-04-25T09:37:17;65156.72;;;-143.30;100.00
14594;BME280;7383;52.354;9.756;2023-04-25T09:39:46;65156.72;;;-143.30;100.00
14594;BME280;7383;52.354;9.756;2023-04-25T09:42:13;65156.72;;;-143.30;100.00
14594;BME280;7383;52.354;9.756;2023-04-25T09:44:43;65156.72;;;-143.30;100.00
14594;BME280;7383;52.354;9.756;2023-04-25T09:47:12;65156.72;;;-143.30;100.00
14594;BME280;7383;52.354;9.756;2023-04-25T09:49:41;65156.72;;;-143.30;100.00
14594;BME280;7383;52.354;9.756;2023-04-25T09:52:13;65156.72;;;-143.30;100.00
14594;BME280;7383;52.354;9.756;2023-04-25T09:54:40;65156.72;;;-143.30;100.00
14594;BME280;7383;52.354;9.756;2023-04-25T09:57:10;65156.72;;;-143.30;100.00
14594;BME280;7383;52.354;9.756;2023-04-25T09:59:39;65156.72;;;-143.30;100.00
14594;BME280;7383;52.354;9.756;2023-04-25T10:02:09;65156.72;;;-143.30;100.00
14594;BME280;7383;52.354;9.756;2023-04-25T10:04:37;65156.72;;;-143.30;100.00
14594;BME280;7383;52.354;9.756;2023-04-25T10:07:05;65156.72;;;-143.30;100.00
14594;BME280;7383;52.354;9.756;2023-04-25T10:09:36;65156.72;;;-143.30;100.00
14594;BME280;7383;52.354;9.756;2023-04-25T10:12:07;65156.72;;;-143.30;100.00
14594;BME280;7383;52.354;9.756;2023-04-25T10:14:34;65156.72;;;-143.30;100.00
14594;BME280;7383;52.354;9.756;2023-04-25T10:17:01;65156.72;;;-143.30;100.00
14594;BME280;7383;52.354;9.756;2023-04-25T10:19:27;65156.72;;;-143.30;100.00
14594;BME280;7383;52.354;9.756;2023-04-25T10:22:01;65156.72;;;-143.30;100.00
14594;BME280;7383;52.354;9.756;2023-04-25T10:24:36;65156.72;;;-143.30;100.00
14594;BME280;7383;52.354;9.756;2023-04-25T10:27:04;65156.72;;;-143.30;100.00
14594;BME280;7383;52.354;9.756;2023-04-25T10:29:31;65156.72;;;-143.30;100.00
14594;BME280;7383;52.354;9.756;2023-04-25T10:31:59;65156.72;;;-143.30;100.00
14594;BME280;7383;52.354;9.756;2023-04-25T10:34:38;65156.72;;;-143.30;100.00
14594;BME280;7383;52.354;9.756;2023-04-25T10:37:08;65156.72;;;-143.30;100.00
14594;BME280;7383;52.354;9.756;2023-04-25T10:39:39;65156.72;;;-143.30;100.00
14594;BME280;7383;52.354;9.756;2023-04-25T10:42:07;65156.72;;;-143.30;100.00
14594;BME280;7383;52.354;9.756;2023-04-25T10:44:34;65156.72;;;-143.30;100.00
14594;BME280;7383;52.354;9.756;2023-04-25T10:47:02;65156.72;;;-143.30;100.00
14594;BME280;7383;52.354;9.756;2023-04-25T10:49:32;65156.72;;;-143.30;100.00
14594;BME280;7383;52.354;9.756;2023-04-25T10:52:24;65156.72;;;-143.30;100.00
14594;BME280;7383;52.354;9.756;2023-04-25T10:54:53;65156.72;;;-143.30;100.00
14594;BME280;7383;52.354;9.756;2023-04-25T10:57:31;65156.72;;;-143.30;100.00
14594;BME280;7383;52.354;9.756;2023-04-25T10:59:59;65156.72;;;-143.30;100.00
14594;BME280;7383;52.354;9.756;2023-04-25T11:02:26;65156.72;;;-143.30;100.00
14594;BME280;7383;52.354;9.756;2023-04-25T11:04:54;65156.72;;;-143.30;100.00
14594;BME280;7383;52.354;9.756;2023-04-25T11:07:29;65156.72;;;-143.30;100.00
14594;BME280;7383;52.354;9.756;2023-04-25T11:10:02;65156.72;;;-143.30;100.00
14594;BME280;7383;52.354;9.756;2023-04-25T11:12:30;65156.72;;;-143.30;100.00
14594;BME280;7383;52.354;9.756;2023-04-25T11:15:01;65156.72;;;-143.30;100.00
14594;BME280;7383;52.354;9.756;2023-04-25T11:17:28;65156.72;;;-143.30;100.00
14594;BME280;7383;52.354;9.756;2023-04-25T11:19:55;65156.72;;;-143.30;100.00
14594;BME280;7383;52.354;9.756;2023-04-25T11:22:22;65156.72;;;-143.30;100.00
14594;BME280;7383;52.354;9.756;2023-04-25T11:24:49;65156.72;;;-143.30;100.00
14594;BME280;7383;52.354;9.756;2023-04-25T11:27:17;65156.72;;;-143.30;100.00
14594;BME280;7383;52.354;9.756;2023-04-25T11:29:43;65156.72;;;-143.30;100.00
14594;BME280;7383;52.354;9.756;2023-04-25T11:32:10;65156.72;;;-143.30;100.00
14594;BME280;7383;52.354;9.756;2023-04-25T11:34:43;65156.72;;;-143.30;100.00
14594;BME280;7383;52.354;9.756;2023-04-25T11:37:10;65156.72;;;-143.30;100.00
14594;BME280;7383;52.354;9.756;2023-04-25T11:39:37;65156.72;;;-143.30;100.00
14594;BME280;7383;52.354;9.756;2023-04-25T11:42:04;65156.72;;;-143.30;100.00
14594;BME280;7383;52.354;9.756;2023-04-25T11:44:32;65156.72;;;-143.30;100.00
14594;BME280;7383;52.354;9.756;2023-04-25T11:46:59;65156.72;;;-143.30;100.00
14594;BME280;7383;52.354;9.756;2023-04-25T11:49:30;65156.72;;;-143.30;100.00
14594;BME280;7383;52.354;9.756;2023-04-25T11:51:57;65156.72;;;-143.30;100.00
14594;BME280;7383;52.354;9.756;2023-04-25T11:54:24;65156.72;;;-143.30;100.00
14594;BME280;7383;52.354;9.756;2023-04-25T11:56:51;65156.72;;;-143.30;100.00
14594;BME280;7383;52.354;9.756;2023-04-25T11:59:24;65156.72;;;-143.30;100.00
14594;BME280;7383;52.354;9.756;2023-04-25T12:01:53;65156.72;;;-143.30;100.00
14594;BME280;7383;52.354;9.756;2023-04-25T12:04:20;65156.72;;;-143.30;100.00
14594;BME280;7383;52.354;9.756;2023-04-25T12:06:52;65156.72;;;-143.30;100.00
14594;BME280;7383;52.354;9.756;2023-04-25T12:09:29;65156.72;;;-143.30;100.00
14594;BME280;7383;52.354;9.756;2023-04-25T12:12:02;-12673.16;;;12.53;100.00
14594;BME280;7383;52.354;9.756;2023-04-25T12:14:29;-12678.91;;;12.86;100.00
14594;BME280;7383;52.354;9.756;2023-04-25T12:17:08;-12682.91;;;13.09;100.00
14594;BME280;7383;52.354;9.756;2023-04-25T12:19:35;-12685.63;;;13.25;100.00
14594;BME280;7383;52.354;9.756;2023-04-25T12:22:19;-12687.63;;;13.37;100.00
14594;BME280;7383;52.354;9.756;2023-04-25T12:24:47;-12687.09;;;13.34;100.00
14594;BME280;7383;52.354;9.756;2023-04-25T12:27:15;-12687.97;;;13.39;100.00
14594;BME280;7383;52.354;9.756;2023-04-25T12:29:53;-12691.34;;;13.58;100.00
14594;BME280;7383;52.354;9.756;2023-04-25T12:32:33;-12695.28;;;13.81;100.00
14594;BME280;7383;52.354;9.756;2023-04-25T12:35:00;-12701.69;;;14.18;100.00
14594;BME280;7383;52.354;9.756;2023-04-25T12:37:28;-12707.25;;;14.51;100.00
14594;BME280;7383;52.354;9.756;2023-04-25T12:39:55;-12712.19;;;14.79;100.00
14594;BME280;7383;52.354;9.756;2023-04-25T12:42:21;-12708.72;;;14.59;100.00
14594;BME280;7383;52.354;9.756;2023-04-25T12:44:47;-12704.13;;;14.32;100.00
14594;BME280;7383;52.354;9.756;2023-04-25T12:47:14;-12697.44;;;13.94;100.00
14594;BME280;7383;52.354;9.756;2023-04-25T12:49:42;-12692.75;;;13.66;100.00
14594;BME280;7383;52.354;9.756;2023-04-25T12:52:19;-12689.28;;;13.46;100.00
14594;BME280;7383;52.354;9.756;2023-04-25T12:54:45;-12686.75;;;13.31;100.00
14594;BME280;7383;52.354;9.756;2023-04-25T12:57:12;-12685.72;;;13.25;100.00
14594;BME280;7383;52.354;9.756;2023-04-25T12:59:38;-12683.88;;;13.15;100.00
14594;BME280;7383;52.354;9.756;2023-04-25T13:02:07;-12680.56;;;12.96;100.00
14594;BME280;7383;52.354;9.756;2023-04-25T13:04:53;-12676.47;;;12.72;100.00
14594;BME280;7383;52.354;9.756;2023-04-25T13:07:26;-12674.31;;;12.59;100.00
14594;BME280;7383;52.354;9.756;2023-04-25T13:10:10;-12671.50;;;12.43;100.00
14594;BME280;7383;52.354;9.756;2023-04-25T13:12:49;-12671.16;;;12.41;100.00
14594;BME280;7383;52.354;9.756;2023-04-25T13:15:15;-12670.22;;;12.36;100.00
14594;BME280;7383;52.354;9.756;2023-04-25T13:17:44;-12666.47;;;12.14;100.00
14594;BME280;7383;52.354;9.756;2023-04-25T13:21:15;-12663.94;;;11.99;100.00
14594;BME280;7383;52.354;9.756;2023-04-25T13:23:40;-12662.09;;;11.89;100.00
14594;BME280;7383;52.354;9.756;2023-04-25T13:26:13;-12662.72;;;11.92;100.00
14594;BME280;7383;52.354;9.756;2023-04-25T13:28:57;-12660.28;;;11.78;100.00
14594;BME280;7383;52.354;9.756;2023-04-25T13:31:37;-12661.59;;;11.86;100.00
14594;BME280;7383;52.354;9.756;2023-04-25T13:34:09;-12662.44;;;11.91;100.00
14594;BME280;7383;52.354;9.756;2023-04-25T13:36:54;-12665.25;;;12.07;100.00
14594;BME280;7383;52.354;9.756;2023-04-25T13:39:55;-12667.69;;;12.21;100.00
14594;BME280;7383;52.354;9.756;2023-04-25T13:42:22;-12674.56;;;12.61;100.00
14594;BME280;7383;52.354;9.756;2023-04-25T13:44:53;-12692.31;;;13.64;100.00
14594;BME280;7383;52.354;9.756;2023-04-25T13:47:52;-12765.59;;;17.91;100.00
14594;BME280;7383;52.354;9.756;2023-04-25T13:50:23;-12829.41;;;21.66;100.00
14594;BME280;7383;52.354;9.756;2023-04-25T13:53:26;-12874.91;;;24.35;100.00
14594;BME280;7383;52.354;9.756;2023-04-25T13:55:52;-12909.03;;;26.37;100.00
14594;BME280;7383;52.354;9.756;2023-04-25T13:58:21;-12883.94;;;24.88;100.00
14594;BME280;7383;52.354;9.756;2023-04-25T14:00:54;-12842.16;;;22.41;100.00
14594;BME280;7383;52.354;9.756;2023-04-25T14:03:20;-12806.41;;;20.31;100.00
14594;BME280;7383;52.354;9.756;2023-04-25T14:05:52;-12778.69;;;18.68;100.00
14594;BME280;7383;52.354;9.756;2023-04-25T14:08:23;-12757.81;;;17.46;100.00
14594;BME280;7383;52.354;9.756;2023-04-25T14:10:53;-12744.00;;;16.65;100.00